Iwanui, Waitara Historical Data
 
Daily Summary for July 23, 2018 Units:  Metric    English   Both
« Previous Day
Next Day »
Daily Weekly Monthly Yearly Custom
  Current: High: Low: Average:
Temperature: 9.2 °C 11.5 °C 7.9 °C 10 °C
Dew Point: 4.4 °C 5.8 °C 3.1 °C 4.5 °C
Humidity: 72% 81% 60% 69%
Wind Speed: 7.2km/h 20.9km/h 3.5km/h 9.5km/h
Wind Gust: 14.8km/h 34.3km/h - -
WindWSW - - West
Pressure: 1010.5 hPa 1010.5 hPa 1009.5 hPa -
Precipitation: 2.3 mm      
Historical Graphs
 
 
Tabular Data for July 23, 2018
Time Temperature Dew Point Pressure Wind Wind Speed Wind Gust Humidity Rainfall Rate (Hourly)
00:04 10.8 °C 5.8 °C 1009.6 hPa West 9.7 km/h 18.3 km/h 71% 0.3 mm
00:09 10.8 °C 5.8 °C 1009.7 hPa West 8.7 km/h 18.3 km/h 71% 0.3 mm
00:14 10.8 °C 5.8 °C 1009.6 hPa West 7.2 km/h 17.2 km/h 71% 0.3 mm
00:19 10.8 °C 5.8 °C 1009.7 hPa West 7.2 km/h 17.2 km/h 71% 0.3 mm
00:24 10.8 °C 5.6 °C 1009.7 hPa West 7.2 km/h 15.8 km/h 70% 0.3 mm
00:29 10.7 °C 5.4 °C 1009.7 hPa WNW 8.7 km/h 15.8 km/h 70% 0.3 mm
00:35 10.7 °C 5.4 °C 1009.6 hPa WNW 11.1 km/h 17.2 km/h 70% 0.3 mm
00:39 10.8 °C 5.1 °C 1009.7 hPa West 6.1 km/h 19.5 km/h 68% 0.3 mm
00:44 10.8 °C 4.9 °C 1009.7 hPa West 13.4 km/h 23.3 km/h 67% 0.3 mm
00:49 10.9 °C 4.6 °C 1009.8 hPa West 7.2 km/h 23.3 km/h 65% 0.3 mm
00:54 10.8 °C 4.3 °C 1009.8 hPa WSW 6.1 km/h 23.3 km/h 64% 0.0 mm
00:59 10.8 °C 4.3 °C 1009.7 hPa WSW 8.7 km/h 18.3 km/h 64% 0.0 mm
01:04 10.9 °C 4.3 °C 1009.8 hPa West 12.2 km/h 23.3 km/h 64% 0.0 mm
01:09 11.0 °C 4.2 °C 1009.8 hPa West 11.1 km/h 23.3 km/h 63% 0.0 mm
01:14 11.1 °C 4.1 °C 1009.7 hPa West 8.7 km/h 21.9 km/h 62% 0.0 mm
01:19 11.2 °C 4.2 °C 1009.7 hPa WNW 8.7 km/h 21.9 km/h 62% 0.0 mm
01:24 11.4 °C 4.4 °C 1009.8 hPa West 14.8 km/h 34.3 km/h 62% 0.0 mm
01:29 11.5 °C 4.0 °C 1009.8 hPa West 11.1 km/h 34.3 km/h 60% 0.0 mm
01:34 11.5 °C 4.0 °C 1009.7 hPa West 9.7 km/h 25.6 km/h 60% 0.0 mm
01:39 11.4 °C 4.2 °C 1009.7 hPa West 11.1 km/h 25.6 km/h 61% 0.0 mm
01:44 11.2 °C 4.2 °C 1009.9 hPa West 13.4 km/h 21.9 km/h 62% 0.0 mm
01:49 11.2 °C 4.2 °C 1009.8 hPa WSW 11.1 km/h 28.0 km/h 62% 0.0 mm
01:54 11.3 °C 4.3 °C 1009.7 hPa West 12.2 km/h 30.6 km/h 62% 0.0 mm
01:59 11.3 °C 4.3 °C 1009.7 hPa WNW 11.1 km/h 30.6 km/h 62% 0.0 mm
02:04 11.1 °C 4.1 °C 1009.7 hPa West 13.4 km/h 24.5 km/h 62% 0.0 mm
02:09 11.2 °C 3.7 °C 1009.6 hPa West 17.2 km/h 25.6 km/h 60% 0.0 mm
02:14 11.3 °C 3.8 °C 1009.6 hPa West 12.2 km/h 29.4 km/h 60% 0.0 mm
02:19 11.2 °C 3.7 °C 1009.6 hPa WSW 9.7 km/h 29.4 km/h 60% 0.0 mm
02:24 11.1 °C 3.9 °C 1009.6 hPa WSW 8.7 km/h 25.6 km/h 61% 0.0 mm
02:29 11.1 °C 3.9 °C 1009.6 hPa West 15.8 km/h 23.3 km/h 61% 0.0 mm
02:34 11.0 °C 4.0 °C 1009.6 hPa West 8.7 km/h 23.3 km/h 62% 0.0 mm
02:39 10.9 °C 4.3 °C 1009.5 hPa West 15.8 km/h 21.9 km/h 64% 0.0 mm
02:44 11.0 °C 4.0 °C 1009.6 hPa West 12.2 km/h 21.9 km/h 62% 0.0 mm
02:49 11.1 °C 4.1 °C 1009.5 hPa West 11.1 km/h 20.9 km/h 62% 0.0 mm
02:54 11.0 °C 4.0 °C 1009.5 hPa West 11.1 km/h 29.4 km/h 62% 0.0 mm
02:59 11.1 °C 4.1 °C 1009.7 hPa West 14.8 km/h 29.4 km/h 62% 0.0 mm
03:04 11.3 °C 4.3 °C 1009.6 hPa WNW 14.8 km/h 29.4 km/h 62% 0.0 mm
03:09 11.2 °C 4.7 °C 1010.1 hPa West 20.9 km/h 33.1 km/h 64% 0.0 mm
03:14 9.5 °C 4.1 °C 1009.8 hPa WSW 7.2 km/h 33.1 km/h 69% 2.0 mm
03:19 8.5 °C 3.9 °C 1009.7 hPa WSW 8.7 km/h 33.1 km/h 73% 2.3 mm
03:24 8.1 °C 3.9 °C 1009.8 hPa WSW 6.1 km/h 14.8 km/h 75% 2.3 mm
03:29 8.1 °C 4.3 °C 1009.8 hPa WSW 3.5 km/h 14.8 km/h 77% 2.3 mm
03:34 8.0 °C 4.6 °C 1009.8 hPa WSW 8.7 km/h 15.8 km/h 79% 2.3 mm
03:39 7.9 °C 4.7 °C 1009.8 hPa WSW 7.2 km/h 15.8 km/h 80% 2.3 mm
03:44 7.9 °C 4.7 °C 1009.7 hPa WSW 7.2 km/h 15.8 km/h 80% 2.3 mm
03:49 8.3 °C 5.2 °C 1009.8 hPa WSW 11.1 km/h 19.5 km/h 81% 2.3 mm
03:54 8.6 °C 5.5 °C 1009.8 hPa West 14.8 km/h 20.9 km/h 81% 2.3 mm
03:59 8.8 °C 5.7 °C 1009.9 hPa WNW 9.7 km/h 20.9 km/h 81% 2.3 mm
04:04 8.9 °C 5.8 °C 1010.0 hPa WNW 7.2 km/h 20.9 km/h 81% 2.3 mm
04:09 9.1 °C 5.8 °C 1010.0 hPa WNW 9.7 km/h 15.8 km/h 80% 2.3 mm
04:14 9.1 °C 5.8 °C 1010.0 hPa West 6.1 km/h 14.8 km/h 80% 0.0 mm
04:19 9.1 °C 5.7 °C 1010.0 hPa SW 7.2 km/h 20.9 km/h 79% 0.0 mm
04:24 8.9 °C 5.3 °C 1010.1 hPa SSW 6.1 km/h 20.9 km/h 78% 0.0 mm
04:29 8.8 °C 4.8 °C 1010.1 hPa SW 3.5 km/h 20.9 km/h 76% 0.0 mm
04:34 8.7 °C 4.5 °C 1010.2 hPa WSW 6.1 km/h 15.8 km/h 75% 0.0 mm
04:39 8.6 °C 4.2 °C 1010.1 hPa WSW 6.1 km/h 15.8 km/h 74% 0.0 mm
04:44 8.5 °C 4.1 °C 1010.0 hPa WSW 6.1 km/h 14.8 km/h 74% 0.0 mm
04:49 8.6 °C 4.2 °C 1010.0 hPa WSW 8.7 km/h 17.2 km/h 74% 0.0 mm
04:54 8.8 °C 4.4 °C 1010.3 hPa West 11.1 km/h 17.2 km/h 74% 0.0 mm
04:59 9.4 °C 4.8 °C 1010.2 hPa West 7.2 km/h 30.6 km/h 73% 0.0 mm
05:04 9.4 °C 4.8 °C 1010.2 hPa WSW 7.2 km/h 30.6 km/h 73% 0.0 mm
05:09 9.1 °C 4.5 °C 1010.2 hPa WSW 5.0 km/h 12.2 km/h 73% 0.0 mm
05:14 8.9 °C 4.5 °C 1010.1 hPa WSW 8.7 km/h 14.8 km/h 74% 0.0 mm
05:19 9.0 °C 4.4 °C 1010.1 hPa SW 7.2 km/h 14.8 km/h 73% 0.0 mm
05:24 8.9 °C 4.3 °C 1010.1 hPa SW 6.1 km/h 14.8 km/h 73% 0.0 mm
05:29 9.0 °C 4.0 °C 1010.1 hPa SW 9.7 km/h 25.6 km/h 71% 0.0 mm
05:34 9.2 °C 3.4 °C 1010.1 hPa SW 6.1 km/h 25.6 km/h 67% 0.0 mm
05:39 9.3 °C 3.1 °C 1010.2 hPa WSW 6.1 km/h 20.9 km/h 65% 0.0 mm
05:44 9.4 °C 3.4 °C 1010.5 hPa WSW 12.2 km/h 33.1 km/h 66% 0.0 mm
05:49 9.6 °C 4.0 °C 1010.5 hPa WSW 8.7 km/h 33.1 km/h 68% 0.0 mm
05:54 9.5 °C 4.5 °C 1010.4 hPa West 7.2 km/h 25.6 km/h 71% 0.0 mm
05:59 9.2 °C 4.4 °C 1010.5 hPa WSW 7.2 km/h 14.8 km/h 72% 0.0 mm
Waitara, Taranaki. New Zealand Historic Data
Compliments of Weather Underground - 2 mb